Time;durP1;ratioP1;P1;durP2;ratioP2;P2;SDS_P1;SDS_P2;PMS_P1;PMS_P2;Temp;Humidity;BMP_temperature;BMP_pressure;BME280_temperature;BME280_humidity;BME280_pressure;Samples;Min_cycle;Max_cycle;Signal;HPM_P1;HPM_P2
2023/01/16 00:01:09;;;;;;;6.30;3.85;;;4.80;99.90;;;;;;5027503;28;20401;-61
2023/01/16 00:03:35;;;;;;;4.78;3.75;;;4.90;99.90;;;;;;5026987;28;20037;-61
2023/01/16 00:06:01;;;;;;;7.80;4.22;;;4.30;99.90;;;;;;5026842;28;20041;-62
2023/01/16 00:08:27;;;;;;;8.05;4.25;;;4.70;99.90;;;;;;5027705;28;20497;-61
2023/01/16 00:10:52;;;;;;;6.40;4.30;;;4.00;99.90;;;;;;5025687;28;20048;-61
2023/01/16 00:13:18;;;;;;;5.32;3.80;;;4.30;99.90;;;;;;5027419;28;20132;-61
2023/01/16 00:15:49;;;;;;;5.50;3.58;;;4.60;99.90;;;;;;5027194;28;20115;-61
2023/01/16 00:18:14;;;;;;;7.13;3.80;;;5.20;99.90;;;;;;5026862;28;20049;-61
2023/01/16 00:20:40;;;;;;;7.85;3.55;;;4.10;99.90;;;;;;5026244;28;20072;-62
2023/01/16 00:23:06;;;;;;;6.32;3.60;;;5.00;99.90;;;;;;5027278;28;20040;-61
2023/01/16 00:25:32;;;;;;;7.55;3.58;;;4.60;99.90;;;;;;5027187;28;20123;-62
2023/01/16 00:27:57;;;;;;;5.63;3.45;;;3.90;99.90;;;;;;5026940;28;20063;-61
2023/01/16 00:30:24;;;;;;;5.82;3.20;;;3.90;99.90;;;;;;5027337;28;20129;-62
2023/01/16 00:32:50;;;;;;;7.35;3.05;;;4.40;99.90;;;;;;5025951;28;20076;-61
2023/01/16 00:35:16;;;;;;;9.15;3.30;;;4.60;99.90;;;;;;5025957;28;20150;-62
2023/01/16 00:37:42;;;;;;;5.35;3.28;;;3.80;99.90;;;;;;5026932;28;20406;-62
2023/01/16 00:40:08;;;;;;;4.93;2.60;;;4.50;99.90;;;;;;5026725;28;20046;-62
2023/01/16 00:42:34;;;;;;;7.50;3.10;;;3.70;99.90;;;;;;5026220;28;20391;-62
2023/01/16 00:44:59;;;;;;;5.35;2.85;;;4.70;99.90;;;;;;5026943;28;20486;-62
2023/01/16 00:47:25;;;;;;;6.18;2.72;;;4.40;99.90;;;;;;5026891;28;20041;-61
2023/01/16 00:49:51;;;;;;;5.70;2.35;;;4.90;99.90;;;;;;5026659;28;20080;-61
2023/01/16 00:52:16;;;;;;;6.90;3.08;;;3.70;99.90;;;;;;5025438;28;20046;-61
2023/01/16 00:54:42;;;;;;;7.43;3.00;;;3.70;99.90;;;;;;5026559;28;20041;-60
2023/01/16 00:57:08;;;;;;;5.25;2.33;;;3.70;99.90;;;;;;5026567;28;20045;-61
2023/01/16 00:59:33;;;;;;;6.07;2.67;;;4.40;99.90;;;;;;5025842;28;20045;-61
2023/01/16 01:01:59;;;;;;;6.88;2.55;;;4.30;99.90;;;;;;5026680;28;20041;-62
2023/01/16 01:04:25;;;;;;;6.55;2.83;;;4.00;99.90;;;;;;5026180;28;20044;-60
2023/01/16 01:06:50;;;;;;;5.00;2.47;;;4.00;99.90;;;;;;5025331;28;20051;-60
2023/01/16 01:09:16;;;;;;;5.28;2.10;;;3.90;99.90;;;;;;5025076;28;20497;-61
2023/01/16 01:11:42;;;;;;;5.40;2.42;;;4.20;99.90;;;;;;5026239;28;20041;-60
2023/01/16 01:14:07;;;;;;;6.78;2.60;;;3.80;99.90;;;;;;5026293;28;20046;-61
2023/01/16 01:16:33;;;;;;;6.65;2.75;;;3.50;99.90;;;;;;5025465;28;20498;-61
2023/01/16 01:18:59;;;;;;;8.45;2.58;;;4.00;99.90;;;;;;5026392;28;20128;-59
2023/01/16 01:21:24;;;;;;;5.45;2.80;;;4.00;99.90;;;;;;5025248;28;20033;-60
2023/01/16 01:23:50;;;;;;;5.93;2.50;;;4.00;99.90;;;;;;5025568;28;20566;-60
2023/01/16 01:26:17;;;;;;;6.60;2.75;;;4.30;99.90;;;;;;5025651;28;20363;-60
2023/01/16 01:28:43;;;;;;;8.45;3.03;;;4.00;99.90;;;;;;5025572;28;20091;-60
2023/01/16 01:31:11;;;;;;;7.00;2.75;;;4.60;99.90;;;;;;5025429;28;20041;-59
2023/01/16 01:33:38;;;;;;;7.93;2.97;;;3.70;99.90;;;;;;5025458;28;20080;-60
2023/01/16 01:36:06;;;;;;;7.03;3.03;;;3.80;99.90;;;;;;5025268;28;20107;-61
2023/01/16 01:38:33;;;;;;;6.80;2.95;;;3.50;99.90;;;;;;5025350;28;20434;-60
2023/01/16 01:40:58;;;;;;;7.72;3.13;;;3.90;99.90;;;;;;5025631;28;20050;-61
2023/01/16 01:43:48;;;;;;;7.32;3.20;;;3.30;99.90;;;;;;5025510;28;20045;-60
2023/01/16 01:46:40;;;;;;;6.75;3.28;;;3.70;99.90;;;;;;5025430;28;20128;-60
2023/01/16 01:49:15;;;;;;;7.72;3.00;;;4.20;99.90;;;;;;5025046;28;20080;-61
2023/01/16 01:51:42;;;;;;;8.50;3.58;;;4.20;99.90;;;;;;5023410;28;20132;-59
2023/01/16 01:54:14;;;;;;;7.30;3.20;;;3.40;99.90;;;;;;5025299;28;20049;-60
2023/01/16 01:57:06;;;;;;;9.55;3.88;;;3.60;99.90;;;;;;5023625;28;20049;-61
2023/01/16 01:59:41;;;;;;;6.50;3.20;;;3.70;99.90;;;;;;5025839;28;20437;-60
2023/01/16 02:04:49;;;;;;;7.70;2.70;;;3.60;99.90;;;;;;4984832;28;20418;-61
2023/01/16 02:07:17;;;;;;;7.88;3.13;;;3.60;99.90;;;;;;4986699;28;20051;-61
2023/01/16 02:09:43;;;;;;;9.32;3.25;;;4.00;99.90;;;;;;4987005;28;20046;-61
2023/01/16 02:12:10;;;;;;;5.72;2.90;;;3.70;99.90;;;;;;4986075;28;20096;-61
2023/01/16 02:14:38;;;;;;;7.57;2.95;;;4.00;99.90;;;;;;4984036;28;20519;-61
2023/01/16 02:20:20;;;;;;;6.80;2.80;;;3.20;99.90;;;;;;4984993;28;20392;-61
2023/01/16 02:23:07;;;;;;;9.88;3.00;;;3.80;99.90;;;;;;4985629;28;20061;-60
2023/01/16 02:25:57;;;;;;;8.77;3.00;;;3.30;99.90;;;;;;4984544;28;20082;-59
2023/01/16 02:28:53;;;;;;;10.00;3.30;;;3.50;99.90;;;;;;4985549;28;20179;-60
2023/01/16 02:31:58;;;;;;;10.23;2.92;;;3.90;99.90;;;;;;4983481;28;20133;-59
2023/01/16 02:34:45;;;;;;;8.52;3.17;;;3.50;99.90;;;;;;4985562;28;20042;-60
2023/01/16 02:37:20;;;;;;;11.85;3.60;;;3.90;99.90;;;;;;4984636;28;20165;-60
2023/01/16 02:39:48;;;;;;;;;;;4.60;99.90;;;;;;4985581;28;20347;-60
2023/01/16 02:42:53;;;;;;;8.57;2.63;;;3.80;99.90;;;;;;4985652;28;19917;-60
2023/01/16 02:45:33;;;;;;;8.23;2.97;;;4.10;99.90;;;;;;4985175;28;20108;-60
2023/01/16 02:48:12;;;;;;;7.60;3.00;;;3.40;99.90;;;;;;4985461;28;20046;-61
2023/01/16 02:51:36;;;;;;;10.13;3.38;;;3.50;99.90;;;;;;4983567;28;20050;-60
2023/01/16 02:54:16;;;;;;;7.22;2.92;;;3.40;99.90;;;;;;4924223;29;20096;-60
2023/01/16 02:56:45;;;;;;;6.47;2.53;;;3.70;99.90;;;;;;4924050;29;20055;-60
2023/01/16 02:59:14;;;;;;;7.50;2.70;;;4.00;99.90;;;;;;4968312;28;20146;-61
2023/01/16 03:01:40;;;;;;;8.43;2.50;;;4.20;99.90;;;;;;4985180;28;20042;-60
2023/01/16 03:04:24;;;;;;;5.63;2.47;;;3.90;99.90;;;;;;4998980;28;20058;-61
2023/01/16 03:07:13;;;;;;;8.55;2.78;;;3.50;99.90;;;;;;5003883;28;20105;-60
2023/01/16 03:10:10;;;;;;;7.35;2.65;;;3.50;99.90;;;;;;5004638;28;20038;-61
2023/01/16 03:12:44;;;;;;;6.50;2.20;;;3.60;99.90;;;;;;5004380;28;20136;-60
2023/01/16 03:15:27;;;;;;;5.57;2.33;;;3.70;99.90;;;;;;5004562;28;20091;-60
2023/01/16 03:18:22;;;;;;;6.03;2.30;;;4.20;99.90;;;;;;5004077;28;20038;-59
2023/01/16 03:21:09;;;;;;;8.20;2.50;;;4.10;99.90;;;;;;5003034;28;20046;-60
2023/01/16 03:23:51;;;;;;;8.90;2.60;;;3.60;99.90;;;;;;5004622;28;20089;-60
2023/01/16 03:26:24;;;;;;;6.32;2.45;;;3.40;99.90;;;;;;5003832;28;20316;-60
2023/01/16 03:29:33;;;;;;;8.15;3.03;;;3.40;99.90;;;;;;5004460;28;20038;-59
2023/01/16 03:32:30;;;;;;;7.38;2.55;;;4.10;99.90;;;;;;4904936;29;20417;-60
2023/01/16 03:35:05;;;;;;;9.07;2.53;;;3.40;99.90;;;;;;4904345;29;20048;-60
2023/01/16 03:37:40;;;;;;;6.53;2.50;;;3.60;99.90;;;;;;4964591;28;20088;-59
2023/01/16 03:40:09;;;;;;;7.15;2.53;;;3.80;99.90;;;;;;5004088;28;20144;-60
2023/01/16 03:42:41;;;;;;;7.32;2.55;;;3.30;99.90;;;;;;5004071;28;20044;-60
2023/01/16 03:45:15;;;;;;;9.15;2.53;;;4.00;99.90;;;;;;5004410;28;20569;-60
2023/01/16 03:47:50;;;;;;;7.95;2.97;;;3.30;99.90;;;;;;5004258;28;20506;-61
2023/01/16 03:50:20;;;;;;;8.43;2.60;;;4.00;99.90;;;;;;5003397;28;20048;-59
2023/01/16 03:52:53;;;;;;;6.78;2.83;;;3.20;99.90;;;;;;4985773;28;20057;-61
2023/01/16 03:55:38;;;;;;;8.43;2.80;;;3.20;99.90;;;;;;5004418;28;20077;-59
2023/01/16 03:58:08;;;;;;;8.27;2.72;;;3.90;99.90;;;;;;5003742;28;20426;-61
2023/01/16 04:00:44;;;;;;;9.85;2.60;;;3.40;99.90;;;;;;5004052;28;20057;-60
2023/01/16 04:03:24;;;;;;;8.32;2.40;;;3.10;99.90;;;;;;5003835;28;20497;-60
2023/01/16 04:06:19;;;;;;;8.40;2.42;;;3.60;99.90;;;;;;5003272;28;20086;-60
2023/01/16 04:08:46;;;;;;;8.27;2.60;;;3.20;99.90;;;;;;5007706;28;20712;-61
2023/01/16 04:11:15;;;;;;;8.90;2.70;;;3.50;99.90;;;;;;4989862;28;20057;-61
2023/01/16 04:13:44;;;;;;;9.45;2.83;;;3.60;99.90;;;;;;5007617;28;20477;-60
2023/01/16 04:16:14;;;;;;;7.32;3.00;;;3.00;99.90;;;;;;5007730;28;20463;-60
2023/01/16 04:18:40;;;;;;;7.72;2.47;;;3.60;99.90;;;;;;4990248;28;20049;-60
2023/01/16 04:21:07;;;;;;;10.63;3.00;;;4.20;99.90;;;;;;5006279;28;20042;-60
2023/01/16 04:23:34;;;;;;;5.75;2.40;;;4.10;99.90;;;;;;5007311;28;20041;-60
2023/01/16 04:26:00;;;;;;;8.57;3.13;;;3.70;99.90;;;;;;5007338;28;20445;-60
2023/01/16 04:28:26;;;;;;;7.72;3.00;;;4.00;99.90;;;;;;5007405;28;20050;-60
2023/01/16 04:30:51;;;;;;;7.90;3.00;;;3.80;99.90;;;;;;5006586;28;20410;-60
2023/01/16 04:33:17;;;;;;;11.27;3.97;;;3.50;99.90;;;;;;5007080;28;20084;-61
2023/01/16 04:35:43;;;;;;;7.18;3.50;;;4.10;99.90;;;;;;5006659;28;20045;-60
2023/01/16 04:38:08;;;;;;;6.65;3.35;;;3.80;99.90;;;;;;5006826;28;20176;-59
2023/01/16 04:40:34;;;;;;;8.23;3.80;;;4.00;99.90;;;;;;5006995;28;20494;-60
2023/01/16 04:43:00;;;;;;;7.05;4.13;;;3.50;99.90;;;;;;5006724;28;20105;-60
2023/01/16 04:45:25;;;;;;;6.82;4.03;;;3.60;99.90;;;;;;5006670;28;20042;-60
2023/01/16 04:47:52;;;;;;;7.55;4.53;;;3.80;99.90;;;;;;5007029;28;20057;-60
2023/01/16 04:50:18;;;;;;;7.43;4.40;;;3.60;99.90;;;;;;4988608;28;20290;-59
2023/01/16 04:52:45;;;;;;;8.48;4.35;;;3.80;99.90;;;;;;5006781;28;20058;-61
2023/01/16 04:55:11;;;;;;;8.55;4.40;;;3.70;99.90;;;;;;5007139;28;20080;-60
2023/01/16 04:57:37;;;;;;;6.68;4.60;;;3.50;99.90;;;;;;4972666;28;20049;-60
2023/01/16 05:00:05;;;;;;;10.20;4.68;;;3.60;99.90;;;;;;5006458;28;20045;-60
2023/01/16 05:02:30;;;;;;;8.45;4.50;;;4.30;99.90;;;;;;5005989;28;20061;-60
2023/01/16 05:04:56;;;;;;;8.45;4.10;;;3.70;99.90;;;;;;5006032;28;20049;-60
2023/01/16 05:07:22;;;;;;;5.40;3.80;;;3.60;99.90;;;;;;5006793;28;20049;-59
2023/01/16 05:09:47;;;;;;;7.22;4.50;;;3.70;99.90;;;;;;5006022;28;20065;-61
2023/01/16 05:12:13;;;;;;;8.98;4.90;;;4.10;99.90;;;;;;5006476;28;20050;-60
2023/01/16 05:14:39;;;;;;;7.25;4.45;;;4.30;99.90;;;;;;5006077;28;20577;-60
2023/01/16 05:17:05;;;;;;;12.35;5.32;;;4.30;99.90;;;;;;5005997;28;20045;-61
2023/01/16 05:19:30;;;;;;;7.35;4.75;;;3.60;99.90;;;;;;5005325;28;20488;-61
2023/01/16 05:21:56;;;;;;;7.90;5.05;;;3.60;99.90;;;;;;5006014;28;20097;-60
2023/01/16 05:24:22;;;;;;;8.65;5.28;;;3.70;99.90;;;;;;5006287;28;20097;-60
2023/01/16 05:26:47;;;;;;;8.48;5.60;;;3.90;99.90;;;;;;5006135;28;20617;-60
2023/01/16 05:29:13;;;;;;;9.82;4.78;;;4.40;99.90;;;;;;5006762;28;20551;-60
2023/01/16 05:31:39;;;;;;;8.52;4.82;;;4.10;99.90;;;;;;5006056;28;20533;-60
2023/01/16 05:34:04;;;;;;;9.13;5.20;;;4.30;99.90;;;;;;5005480;28;20045;-59
2023/01/16 05:36:30;;;;;;;10.57;5.85;;;4.40;99.90;;;;;;5005067;28;20092;-60
2023/01/16 05:38:55;;;;;;;10.93;6.13;;;4.40;99.90;;;;;;5006075;28;20049;-60
2023/01/16 05:41:21;;;;;;;11.57;6.47;;;4.40;99.90;;;;;;5005525;28;20092;-59
2023/01/16 05:43:47;;;;;;;11.50;7.45;;;3.70;99.90;;;;;;5005878;28;20518;-60
2023/01/16 05:46:12;;;;;;;11.82;8.13;;;4.10;99.90;;;;;;5006061;28;20050;-59
2023/01/16 05:48:39;;;;;;;11.75;8.23;;;4.40;99.90;;;;;;5005706;28;20191;-60
2023/01/16 05:51:05;;;;;;;11.65;9.20;;;4.40;99.90;;;;;;4987154;28;20652;-60
2023/01/16 05:53:31;;;;;;;16.88;9.77;;;4.40;99.90;;;;;;5005578;28;20500;-59
2023/01/16 05:55:58;;;;;;;13.77;10.30;;;4.10;99.90;;;;;;5005968;28;20038;-59
2023/01/16 05:58:23;;;;;;;14.05;10.50;;;4.50;99.90;;;;;;5004935;28;20450;-59
2023/01/16 06:00:49;;;;;;;16.05;10.48;;;4.30;99.90;;;;;;5005571;28;20050;-61
2023/01/16 06:03:18;;;;;;;16.52;10.80;;;3.60;99.90;;;;;;5005587;28;20486;-59
2023/01/16 06:05:44;;;;;;;17.88;12.10;;;4.30;99.90;;;;;;5004896;28;20181;-59
2023/01/16 06:08:11;;;;;;;14.02;11.13;;;3.50;99.90;;;;;;5005243;28;20566;-60
2023/01/16 06:10:36;;;;;;;14.95;10.93;;;3.50;99.90;;;;;;5005761;28;20048;-60
2023/01/16 06:13:02;;;;;;;14.38;11.13;;;3.70;99.90;;;;;;4987361;28;20393;-60
2023/01/16 06:15:29;;;;;;;16.10;11.95;;;3.50;99.90;;;;;;5005305;28;20112;-61
2023/01/16 06:17:57;;;;;;;16.02;11.02;;;3.40;99.90;;;;;;4987797;28;20053;-60
2023/01/16 06:20:24;;;;;;;15.52;11.23;;;4.10;99.90;;;;;;5004888;28;20052;-62
2023/01/16 06:22:49;;;;;;;17.08;11.70;;;3.70;99.90;;;;;;5004756;28;20124;-61
2023/01/16 06:25:15;;;;;;;15.63;10.32;;;3.40;99.90;;;;;;5005167;28;20396;-60
2023/01/16 06:27:40;;;;;;;15.25;10.02;;;3.40;99.90;;;;;;5004859;28;20553;-60
2023/01/16 06:30:07;;;;;;;18.40;12.55;;;3.50;99.90;;;;;;4986235;28;20517;-60
2023/01/16 06:32:33;;;;;;;18.08;13.02;;;4.00;99.90;;;;;;5004706;28;20461;-60
2023/01/16 06:34:59;;;;;;;17.05;11.10;;;3.20;99.90;;;;;;5004450;28;20042;-61
2023/01/16 06:37:24;;;;;;;17.65;12.30;;;3.30;99.90;;;;;;5004355;28;20398;-58
2023/01/16 06:39:50;;;;;;;15.60;11.00;;;3.70;99.90;;;;;;5004948;28;20034;-60
2023/01/16 06:42:16;;;;;;;11.90;7.75;;;3.20;99.90;;;;;;5005143;28;20104;-60
2023/01/16 06:44:41;;;;;;;9.40;5.82;;;4.00;99.90;;;;;;5004823;28;20065;-60
2023/01/16 06:47:08;;;;;;;13.90;10.35;;;3.50;99.90;;;;;;5004298;28;20077;-59
2023/01/16 06:49:34;;;;;;;13.43;10.35;;;3.70;99.90;;;;;;5003861;28;20100;-60
2023/01/16 06:52:00;;;;;;;9.48;6.72;;;3.70;99.90;;;;;;5004583;28;20046;-60
2023/01/16 06:54:26;;;;;;;13.82;9.50;;;3.60;99.90;;;;;;5003840;28;20049;-60
2023/01/16 06:56:52;;;;;;;15.38;8.70;;;4.10;99.90;;;;;;5005072;28;20042;-61
2023/01/16 06:59:17;;;;;;;13.85;9.55;;;4.20;99.90;;;;;;5004831;28;20038;-60
2023/01/16 07:01:43;;;;;;;13.98;9.10;;;4.50;99.90;;;;;;5004083;28;20038;-59
2023/01/16 07:04:09;;;;;;;17.77;10.30;;;3.70;99.90;;;;;;5004485;28;20331;-60
2023/01/16 07:06:36;;;;;;;13.30;9.38;;;3.80;99.90;;;;;;5003630;28;20091;-60
2023/01/16 07:09:02;;;;;;;17.88;10.50;;;3.40;99.90;;;;;;5004316;28;20049;-60
2023/01/16 07:11:27;;;;;;;16.10;10.25;;;3.10;99.90;;;;;;5004424;28;20042;-61
2023/01/16 07:22:34;;;;;;;19.92;11.60;;;3.90;99.90;;;;;;5004316;28;20049;-60
2023/01/16 07:24:59;;;;;;;13.95;8.13;;;3.70;99.90;;;;;;5003531;28;20112;-60
2023/01/16 07:27:25;;;;;;;14.55;9.05;;;2.90;99.90;;;;;;5004460;28;20053;-61
2023/01/16 07:29:51;;;;;;;18.50;10.30;;;4.40;99.90;;;;;;5004518;28;20042;-60
2023/01/16 07:32:17;;;;;;;14.60;8.43;;;3.70;99.90;;;;;;4985868;28;20104;-59
2023/01/16 07:34:42;;;;;;;14.60;9.27;;;3.70;99.90;;;;;;5003643;28;20054;-61
2023/01/16 07:37:10;;;;;;;15.27;8.93;;;3.20;99.90;;;;;;5004238;28;20052;-60
2023/01/16 07:39:36;;;;;;;12.57;8.75;;;4.00;99.90;;;;;;5004311;28;20096;-60
2023/01/16 07:42:04;;;;;;;15.32;8.07;;;3.60;99.90;;;;;;5006451;28;20041;-61
2023/01/16 07:44:29;;;;;;;15.88;8.98;;;3.20;99.90;;;;;;4990478;28;20104;-60
2023/01/16 07:46:55;;;;;;;12.48;8.48;;;3.60;99.90;;;;;;5007729;28;20046;-60
2023/01/16 07:49:20;;;;;;;13.13;8.60;;;4.00;99.90;;;;;;4989405;28;20092;-61
2023/01/16 07:51:46;;;;;;;16.08;8.32;;;2.80;99.90;;;;;;5007796;28;20278;-61
2023/01/16 07:54:13;;;;;;;12.90;8.15;;;3.00;99.90;;;;;;5007781;28;20042;-61
2023/01/16 07:56:38;;;;;;;15.82;8.48;;;3.60;99.90;;;;;;5007248;28;20414;-61
2023/01/16 07:59:04;;;;;;;16.55;8.45;;;3.60;99.90;;;;;;5008125;28;20041;-61
2023/01/16 08:01:30;;;;;;;19.02;9.05;;;3.20;99.90;;;;;;5007477;28;20550;-61
2023/01/16 08:03:55;;;;;;;11.82;8.00;;;3.10;99.90;;;;;;5007413;28;20058;-61
2023/01/16 08:06:21;;;;;;;13.90;8.52;;;3.20;99.90;;;;;;5006676;28;20042;-61
2023/01/16 08:08:47;;;;;;;13.65;8.27;;;3.20;99.90;;;;;;5007625;28;20522;-61
2023/01/16 08:13:56;;;;;;;14.55;8.43;;;3.50;99.90;;;;;;5007434;28;20049;-61
2023/01/16 08:16:22;;;;;;;12.23;7.57;;;3.40;99.90;;;;;;5007850;28;20498;-61
2023/01/16 08:18:48;;;;;;;12.15;7.82;;;3.00;99.90;;;;;;4989374;28;20038;-60
2023/01/16 08:21:16;;;;;;;13.07;7.75;;;3.40;99.90;;;;;;5006694;28;20501;-61
2023/01/16 08:23:42;;;;;;;12.45;6.97;;;3.30;99.90;;;;;;5007071;28;20046;-60
2023/01/16 08:26:08;;;;;;;13.90;8.02;;;3.70;99.90;;;;;;4989308;28;20129;-61
2023/01/16 08:28:34;;;;;;;11.05;7.18;;;3.90;99.90;;;;;;5007224;28;20037;-60
2023/01/16 08:31:08;;;;;;;12.07;7.95;;;4.00;99.90;;;;;;4989663;28;20053;-60
2023/01/16 08:33:42;;;;;;;11.23;6.32;;;3.70;99.90;;;;;;4988668;28;20054;-62
2023/01/16 08:36:09;;;;;;;12.70;7.22;;;3.70;99.90;;;;;;5006281;28;20049;-62
2023/01/16 08:38:35;;;;;;;16.80;7.78;;;3.70;99.90;;;;;;5006699;28;20069;-62
2023/01/16 08:41:01;;;;;;;12.07;6.93;;;3.10;99.90;;;;;;5006296;28;20049;-61
2023/01/16 08:51:54;;;;;;;12.23;6.78;;;3.00;99.90;;;;;;5006963;28;20050;-61
2023/01/16 08:54:20;;;;;;;11.18;6.47;;;3.70;99.90;;;;;;5006157;28;20041;-61
2023/01/16 08:56:45;;;;;;;12.32;6.68;;;4.00;99.90;;;;;;4988983;28;20050;-61
2023/01/16 08:59:11;;;;;;;9.52;6.45;;;3.80;99.90;;;;;;5006053;28;20471;-61
2023/01/16 09:01:38;;;;;;;12.27;6.20;;;3.10;99.90;;;;;;5006278;28;20422;-59
2023/01/16 09:04:05;;;;;;;11.70;6.75;;;3.90;99.90;;;;;;4984705;28;20117;-61
2023/01/16 09:06:31;;;;;;;9.98;6.40;;;3.80;99.90;;;;;;4986562;28;20046;-62
2023/01/16 09:08:57;;;;;;;14.48;6.53;;;4.10;99.90;;;;;;4987308;28;20546;-62
2023/01/16 09:14:07;;;;;;;9.60;6.27;;;3.30;99.90;;;;;;4986839;28;20065;-61
2023/01/16 09:16:33;;;;;;;15.98;7.18;;;3.30;99.90;;;;;;4985622;28;20042;-61
2023/01/16 09:18:58;;;;;;;9.18;5.90;;;3.50;99.90;;;;;;4985702;28;20137;-62
2023/01/16 09:21:24;;;;;;;13.55;6.97;;;3.40;99.90;;;;;;4986735;28;20129;-62
2023/01/16 09:23:51;;;;;;;21.17;6.82;;;3.60;99.90;;;;;;4986453;28;20062;-62
2023/01/16 09:26:17;;;;;;;9.85;4.90;;;3.90;99.90;;;;;;4986447;28;20041;-62
2023/01/16 09:28:42;;;;;;;10.88;5.85;;;3.80;99.90;;;;;;4984598;28;20058;-62
2023/01/16 09:31:08;;;;;;;11.75;6.28;;;4.10;99.90;;;;;;4986626;28;20098;-64
2023/01/16 09:33:34;;;;;;;12.77;6.13;;;3.50;99.90;;;;;;4986132;28;20046;-63
2023/01/16 09:36:00;;;;;;;9.35;5.55;;;3.70;99.90;;;;;;4985447;28;20050;-62
2023/01/16 09:38:27;;;;;;;10.93;6.38;;;3.60;99.90;;;;;;4986499;28;20050;-61
2023/01/16 09:40:56;;;;;;;9.15;5.28;;;4.30;99.90;;;;;;4986309;28;20115;-60
2023/01/16 09:43:40;;;;;;;10.07;5.65;;;4.20;99.90;;;;;;4985617;28;20046;-61
2023/01/16 09:46:19;;;;;;;9.15;4.97;;;4.30;99.90;;;;;;4986229;28;20277;-61
2023/01/16 09:48:53;;;;;;;6.65;4.93;;;4.20;99.90;;;;;;4985218;28;20117;-62
2023/01/16 09:51:28;;;;;;;9.93;5.28;;;3.70;99.90;;;;;;4984992;28;20046;-61
2023/01/16 09:59:54;;;;;;;7.10;4.55;;;3.70;99.90;;;;;;4985850;28;20463;-61
2023/01/16 10:02:32;;;;;;;10.45;4.35;;;4.20;99.90;;;;;;4985219;28;20078;-62
2023/01/16 10:04:59;;;;;;;8.63;4.35;;;3.80;99.90;;;;;;4985513;28;20073;-62
2023/01/16 10:07:39;;;;;;;8.27;4.38;;;3.80;99.90;;;;;;4985592;28;20088;-61
2023/01/16 10:10:37;;;;;;;7.38;4.45;;;4.00;99.90;;;;;;4985758;28;20511;-62
2023/01/16 10:13:31;;;;;;;7.63;3.80;;;3.70;99.90;;;;;;4983882;28;20057;-62
2023/01/16 10:16:03;;;;;;;10.75;3.85;;;4.00;99.90;;;;;;4985588;28;20043;-63
2023/01/16 10:18:38;;;;;;;6.55;3.28;;;4.30;99.90;;;;;;4985746;28;20038;-63
2023/01/16 10:21:32;;;;;;;6.68;3.22;;;4.30;99.90;;;;;;4985208;28;20049;-63
2023/01/16 10:24:09;;;;;;;7.15;3.45;;;3.70;99.90;;;;;;4985648;28;20121;-62
2023/01/16 10:26:57;;;;;;;5.50;3.20;;;4.20;99.90;;;;;;4983521;28;20049;-62
2023/01/16 10:29:47;;;;;;;8.43;3.30;;;3.80;99.90;;;;;;4985852;28;20416;-62
2023/01/16 10:32:31;;;;;;;5.40;2.67;;;4.20;99.90;;;;;;4985296;28;20104;-63
2023/01/16 10:35:04;;;;;;;6.18;2.75;;;4.20;99.90;;;;;;4984397;28;20050;-63
2023/01/16 10:37:32;;;;;;;4.53;2.50;;;4.20;99.90;;;;;;4985315;28;20046;-63
2023/01/16 10:40:00;;;;;;;6.28;2.22;;;3.70;99.90;;;;;;4985077;28;20121;-62
2023/01/16 10:50:58;;;;;;;6.18;2.78;;;4.00;99.90;;;;;;4974791;28;20142;-63
2023/01/16 10:53:24;;;;;;;4.82;2.50;;;3.70;99.90;;;;;;4965744;28;20423;-63
2023/01/16 10:55:52;;;;;;;3.65;1.70;;;3.60;99.90;;;;;;4965413;28;20049;-62
2023/01/16 10:58:18;;;;;;;5.20;1.35;;;3.80;99.90;;;;;;4965442;28;20047;-62
2023/01/16 11:00:44;;;;;;;5.22;1.90;;;4.30;99.90;;;;;;4965515;28;20253;-62
2023/01/16 11:03:27;;;;;;;4.47;1.80;;;3.60;99.90;;;;;;4972279;28;20085;-62
2023/01/16 11:06:17;;;;;;;6.13;2.05;;;3.70;99.90;;;;;;4983902;28;20053;-62
2023/01/16 11:08:46;;;;;;;4.45;1.83;;;3.70;99.90;;;;;;4984714;28;20050;-63
2023/01/16 11:19:44;;;;;;;7.20;2.22;;;4.10;99.90;;;;;;4987767;28;20518;-64
2023/01/16 11:22:25;;;;;;;5.40;1.80;;;3.80;99.90;;;;;;4971129;28;20116;-63
2023/01/16 11:24:57;;;;;;;3.50;1.90;;;3.70;99.90;;;;;;4988855;28;20145;-63
2023/01/16 11:27:27;;;;;;;6.20;2.42;;;4.10;99.90;;;;;;4988611;28;20046;-62
2023/01/16 11:29:55;;;;;;;3.85;1.70;;;4.20;99.90;;;;;;4988829;28;20410;-63
2023/01/16 11:32:24;;;;;;;3.28;1.40;;;4.40;99.90;;;;;;4987921;28;20049;-63
2023/01/16 11:34:54;;;;;;;2.85;1.70;;;4.20;99.90;;;;;;4987840;28;20053;-62
2023/01/16 11:37:21;;;;;;;3.05;1.50;;;3.40;99.90;;;;;;4988302;28;20101;-62
2023/01/16 11:39:50;;;;;;;3.95;1.77;;;4.40;99.90;;;;;;4982914;28;20502;-63
2023/01/16 11:48:22;;;;;;;6.95;2.00;;;3.60;99.90;;;;;;4986764;28;20050;-62
2023/01/16 11:50:54;;;;;;;8.20;3.70;;;3.40;99.90;;;;;;4986017;28;20048;-62
2023/01/16 11:53:20;;;;;;;6.43;2.72;;;3.80;99.90;;;;;;4968810;28;20116;-63
2023/01/16 11:56:03;;;;;;;4.80;2.50;;;4.20;99.90;;;;;;4987142;28;20038;-63
2023/01/16 11:58:42;;;;;;;3.72;2.10;;;4.20;99.90;;;;;;4986957;28;20046;-63
2023/01/16 12:02:15;;;;;;;4.20;2.05;;;4.20;99.90;;;;;;4986760;28;20046;-62
2023/01/16 12:04:23;;;;;;;3.50;2.00;;;3.80;99.90;;;;;;4985695;28;20057;-62
2023/01/16 12:07:06;;;;;;;6.40;2.35;;;3.40;99.90;;;;;;4986852;28;20278;-62
2023/01/16 12:09:47;;;;;;;6.78;2.30;;;4.00;99.90;;;;;;4986986;28;20134;-63
2023/01/16 12:15:22;;;;;;;6.63;2.13;;;4.20;99.90;;;;;;4986811;28;20050;-65
2023/01/16 12:18:20;;;;;;;4.03;2.22;;;4.20;99.90;;;;;;4985801;28;20090;-62
2023/01/16 12:21:02;;;;;;;4.40;1.38;;;3.70;99.90;;;;;;4981469;28;20261;-63
2023/01/16 12:23:33;;;;;;;3.08;1.90;;;4.20;99.90;;;;;;4986756;28;20038;-61
2023/01/16 12:26:23;;;;;;;5.30;2.30;;;3.40;99.90;;;;;;4986598;28;20062;-61
2023/01/16 12:29:21;;;;;;;2.03;1.20;;;4.30;99.90;;;;;;4985437;28;20057;-62
2023/01/16 12:32:34;;;;;;;5.05;2.28;;;3.60;99.90;;;;;;4968638;28;20042;-62
2023/01/16 12:35:03;;;;;;;3.40;1.67;;;3.80;99.90;;;;;;4925634;28;20066;-62
2023/01/16 12:37:47;;;;;;;4.90;2.45;;;3.50;99.90;;;;;;4986472;28;20394;-62
2023/01/16 12:40:45;;;;;;;5.60;2.10;;;3.50;99.90;;;;;;4986318;28;20466;-62
2023/01/16 12:43:27;;;;;;;2.58;1.63;;;3.50;99.90;;;;;;4986065;28;20047;-60
2023/01/16 12:46:34;;;;;;;6.55;2.70;;;3.50;99.90;;;;;;4985933;28;20057;-62
2023/01/16 12:49:05;;;;;;;5.63;1.90;;;3.80;99.90;;;;;;4976974;28;20112;-62
2023/01/16 12:51:56;;;;;;;3.58;2.00;;;4.20;99.90;;;;;;4985831;28;20050;-61
2023/01/16 12:54:24;;;;;;;4.82;2.40;;;4.50;99.90;;;;;;4986057;28;20043;-61
2023/01/16 12:57:28;;;;;;;4.93;2.70;;;3.70;99.90;;;;;;4985698;28;20050;-61
2023/01/16 13:00:02;;;;;;;6.10;2.53;;;3.60;99.90;;;;;;4986190;28;20185;-60
2023/01/16 13:02:39;;;;;;;5.63;2.42;;;3.60;99.90;;;;;;4986340;28;20583;-61
2023/01/16 13:05:12;;;;;;;15.00;3.78;;;4.50;99.90;;;;;;4951670;28;20140;-58
2023/01/16 13:07:53;;;;;;;3.92;2.30;;;4.30;99.90;;;;;;4986329;28;20074;-62
2023/01/16 13:13:25;;;;;;;3.92;2.05;;;3.70;99.90;;;;;;4985963;28;20085;-65
2023/01/16 13:16:07;;;;;;;5.20;2.28;;;4.50;99.90;;;;;;4968877;28;20562;-64
2023/01/16 13:18:33;;;;;;;5.82;2.70;;;4.30;99.90;;;;;;4985656;28;20403;-58
2023/01/16 13:21:04;;;;;;;8.07;3.22;;;4.00;99.90;;;;;;4985670;28;20093;-64
2023/01/16 13:23:39;;;;;;;4.43;2.38;;;4.20;99.90;;;;;;4985291;28;20053;-63
2023/01/16 13:26:10;;;;;;;;;;;4.50;99.90;;;;;;4986266;28;20593;-62
2023/01/16 13:28:45;;;;;;;6.53;3.20;;;4.30;99.90;;;;;;4985099;28;19925;-61
2023/01/16 13:31:34;;;;;;;;;;;4.60;99.90;;;;;;4986511;28;20038;-61
2023/01/16 13:34:34;;;;;;;5.65;2.85;;;3.80;99.90;;;;;;4973631;28;20366;-63
2023/01/16 13:37:33;;;;;;;6.88;3.22;;;4.10;99.90;;;;;;4974967;28;20538;-61
2023/01/16 13:40:27;;;;;;;5.57;2.53;;;4.60;99.90;;;;;;4974813;28;20050;-63
2023/01/16 13:45:47;;;;;;;3.22;2.15;;;4.10;99.90;;;;;;4970164;28;20047;-61
2023/01/16 13:45:52;;;;;;;5.35;2.55;;;4.00;99.90;;;;;;4973337;28;20123;-62
2023/01/16 13:48:33;;;;;;;4.95;2.55;;;4.70;99.90;;;;;;4983081;28;20407;-63
2023/01/16 13:51:09;;;;;;;4.35;2.42;;;4.40;99.90;;;;;;4983341;28;20062;-63
2023/01/16 13:53:37;;;;;;;3.65;1.98;;;4.60;99.90;;;;;;4984100;28;20459;-63
2023/01/16 13:56:07;;;;;;;5.47;2.97;;;4.90;99.90;;;;;;4984064;28;20411;-61
2023/01/16 13:58:39;;;;;;;4.20;2.22;;;3.90;99.90;;;;;;4983901;28;20058;-62
2023/01/16 14:01:06;;;;;;;5.45;2.58;;;3.80;99.90;;;;;;4984319;28;20065;-62
2023/01/16 14:03:34;;;;;;;4.90;2.47;;;4.50;99.90;;;;;;4982331;28;20058;-62
2023/01/16 14:06:12;;;;;;;4.38;2.22;;;4.00;99.90;;;;;;4983366;28;20054;-61
2023/01/16 14:09:07;;;;;;;6.07;2.78;;;4.50;99.90;;;;;;4989772;28;20121;-61
2023/01/16 14:11:36;;;;;;;;;;;4.50;99.90;;;;;;5003109;28;20551;-61
2023/01/16 14:17:10;;;;;;;4.20;2.50;;;4.60;99.90;;;;;;4970357;28;20042;-62
2023/01/16 14:19:53;;;;;;;3.17;1.95;;;4.10;99.90;;;;;;4998264;28;20039;-62
2023/01/16 14:24:58;;;;;;;6.50;3.17;;;4.10;99.90;;;;;;4983432;28;20180;-60
2023/01/16 14:27:38;;;;;;;3.58;2.50;;;4.80;99.90;;;;;;4983033;28;20063;-61
2023/01/16 14:30:07;;;;;;;4.32;2.47;;;4.20;99.90;;;;;;4983945;28;20069;-61